Duckwater, Nevada Weather observations

Data are for 10 minute period ending at time listed.
 Day   Time   Solar   Ave.   Ave.  Ave.  Vector  Max.   Baro.   Total    
  of    of     Rad.   Air    Rel.  Wind   Wind   Wind  Press.  Precip.   
Year   Day            Temp.  Hum.  Speed  Dir.   Gust                    
2014   (PST)   w/m2    F      %     mph   deg.    mph    mb.     in.    
-----------------------------------------------------------------------
 232    0:00      0   56.6    81    2.8   330     4.5   999.0   0.00  
 232    0:10      0   56.9    79    4.2   336     5.8   999.0   0.00  
 232    0:20      0   56.9    80    3.7   357     6.4   999.0   0.00  
 232    0:30      0   56.7    80    3.7     2     6.1   999.0   0.00  
 232    0:40      0   56.6    80    0.5     4     2.3   999.0   0.00  
 232    0:50      0   56.4    80    2.6   343     3.8   999.0   0.00  
 232    1:00      0   56.3    81    1.4    35     3.0   999.0   0.00  
 232    1:10      0   55.4    84    2.5    11     3.9   999.0   0.00  
 232    1:20      0   55.0    86    0.9   358     2.7   999.0   0.00  
 232    1:30      0   54.8    86    0.6    72     2.4   999.0   0.00  
 232    1:40      0   53.8    88    1.1    98     3.4   999.0   0.00  
 232    1:50      0   53.6    89    1.5   109     3.4   999.0   0.00  
 232    2:00      0   53.2    90    1.7   336     3.1   999.0   0.00  
 232    2:10      0   53.5    90    2.5    56     3.4   999.0   0.00  
 232    2:20      0   53.3    89    3.2   342     5.1   999.0   0.00  
 232    2:30      0   53.4    89    1.5   360     3.4   999.0   0.00  
 232    2:40      0   54.1    87    2.6    25     4.3   999.0   0.00  
 232    2:50      0   54.3    86    2.9    30     4.7   999.0   0.00  
 232    3:00      0   54.9    84    2.0    32     2.9   999.0   0.00  
 232    3:10      0   55.1    85    0.9    57     2.5   999.0   0.00  
 232    3:20      0   55.0    86    1.0    40     2.3   999.0   0.00  
 232    3:30      0   54.4    88    0.6   287     2.4   999.0   0.00  
 232    3:40      0   54.2    89    0.6   281     2.3   999.0   0.00  
 232    3:50      0   53.2    90    1.1   130     2.6   999.0   0.00  
 232    4:00      0   52.9    91    1.7   263     3.1   999.0   0.00  
 232    4:10      0   52.6    92    1.7   297     2.5   999.0   0.00  
 232    4:20      0   52.9    92    1.0   321     2.7   999.0   0.00  
 232    4:30      0   53.5    91    0.1   322     0.7   999.0   0.00  
 232    4:40      0   53.7    91    0.3   344     3.1   999.0   0.00  
 232    4:50      0   53.6    89    2.9    23     4.3   999.0   0.00  
 232    5:00      0   53.4    88    2.5    24     3.7   999.0   0.00  
 232    5:10      6   53.4    88    1.6    24     2.0   999.0   0.00  
 232    5:20      9   53.1    88    1.9    41     2.8   999.0   0.00  
 232    5:30     14   53.0    88    2.2    55     3.5   999.0   0.00  
 232    5:40     24   52.7    88    1.5   113     2.6   999.0   0.00  
 232    5:50    106   51.5    89    3.3   306     5.3   999.0   0.00  
 232    6:00    141   53.5    89    0.9   306     2.9   999.0   0.00  
 232    6:10    160   56.4    81    2.7   355     5.2   999.0   0.00  
 232    6:20    189   58.4    76    2.9    12     5.1   999.0   0.00  
 232    6:30    221   59.4    73    3.4   354     4.8   999.0   0.00  
 232    6:40    254   60.6    69    1.5   330     3.1   999.0   0.00  
 232    6:50    288   63.1    62    0.6   259     2.0   999.0   0.00  
 232    7:00    321   64.7    58    2.8   174     5.5   999.0   0.00  
 232    7:10    355   65.6    56    2.5   161     5.5   999.0   0.00  
 232    7:20    390   65.8    55    5.1   153     8.4   999.0   0.00  
 232    7:30    423   65.1    56    7.8   148    11.5   999.0   0.00  
 232    7:40    456   64.7    56    8.7   144    11.8   999.0   0.00  
 232    7:50    487   65.5    55    8.6   143    12.0   999.0   0.00  
 232    8:00    527   66.1    53    9.0   155    12.9   999.0   0.00  
 232    8:10    558   67.1    52    8.3   156    10.9   999.0   0.00  
 232    8:20    583   67.7    50    8.1   151    12.3   999.0   0.00  
 232    8:30    615   68.8    47    8.7   151    13.2   999.0   0.00  
 232    8:40    642   69.0    47    9.4   154    14.1   999.0   0.00  
 232    8:50    663   69.3    46   10.2   154    14.2   999.0   0.00  
 232    9:00    687   69.5    46   10.7   149    14.9   999.0   0.00  
 232    9:10    710   70.2    45   10.3   146    14.9   999.0   0.00  
 232    9:20    732   70.9    44   10.8   142    15.6   999.0   0.00  
 232    9:30    756   71.8    43   10.6   146    15.9   999.0   0.00  
 232    9:40    775   72.8    41   11.2   152    15.6   999.0   0.00  
 232    9:50    795   73.1    40   12.3   143    17.6   999.0   0.00  
 232   10:00    813   73.1    40   13.9   146    20.0   999.0   0.00  
 232   10:10    828   73.8    39   14.0   146    21.3   999.0   0.00  
 232   10:20    843   74.2    38   14.0   147    21.4   999.0   0.00  
 232   10:30    856   74.8    37   13.8   149    23.2   999.0   0.00  
 232   10:40    870   75.2    36   14.4   146    23.9   999.0   0.00  
 232   10:50    880   75.8    35   13.0   143    19.4   999.0   0.00  
 232   11:00    889   76.2    34   13.2   144    20.8   999.0   0.00  
 232   11:10    899   76.6    34   12.3   137    18.8   999.0   0.00  
 232   11:20    907   77.2    33   13.3   140    19.6   999.0   0.00  
 232   11:30    921   77.6    32   13.4   143    19.6   999.0   0.00  
 232   11:40    944   78.3    32   13.1   151    22.3   999.0   0.00  
 232   11:50    959   79.0    31   13.4   141    20.5   999.0   0.00  
 232   12:00    886   79.4    30   13.7   144    21.3   999.0   0.00  
 232   12:10    122   77.4    32   12.7   147    21.1   999.0   0.00  
 232   12:20    184   76.1    32   11.5   153    19.1   999.0   0.00  
 232   12:30    216   76.4    31   10.2   192    16.3   999.0   0.00  
 232   12:40    510   77.5    29   10.9   180    18.9   999.0   0.00  
 232   12:50    898   79.7    27    9.9   202    15.1   999.0   0.00  
 232   13:00    417   80.2    26   11.5   153    18.7   999.0   0.00  
 232   13:10    582   79.5    26   11.3   162    18.8   999.0   0.00  
 232   13:20    738   81.4    24   12.6   183    18.8   999.0   0.00  
 232   13:30    190   78.6    28   13.5   158    21.3   999.0   0.00  
 232   13:40    355   78.0    28   13.4   163    22.4   999.0   0.00  
 232   13:50    667   80.6    26   14.2   166    22.3   999.0   0.00  
 232   14:00    148   77.2    30   17.1   175    30.0   999.0   0.00  
 232   14:10    256   75.5    30   18.0   182    25.2   999.0   0.00  
 232   14:20    644   76.0    29   17.4   192    27.2   999.0   0.00  
 232   14:30    319   75.6    29   16.3   195    22.1   999.0   0.00  
 232   14:40    278   75.2    30   12.1   191    19.4   999.0   0.00  
 232   14:50    507   76.8    27   12.9   178    20.0   999.0   0.00  
 232   15:00    386   77.1    26   12.2   178    17.4   999.0   0.00  
 232   15:10    583   76.8    26   14.2   192    20.1   999.0   0.00  
 232   15:20    797   80.0    22   11.7   191    15.8   999.0   0.00  
 232   15:30    354   80.1    22   10.7   180    16.2   999.0   0.00  
 232   15:40    345   78.7    21   10.6   167    16.4   999.0   0.00  
 232   15:50    585   81.1    19   10.5   155    16.1   999.0   0.00  
 232   16:00    535   81.8    18   11.1   158    15.9   999.0   0.00  
 232   16:10    397   81.2    18   11.0   150    14.8   999.0   0.00  
 232   16:20    359   80.6    18   13.4   170    20.4   999.0   0.00  
 232   16:30    366   80.3    19   13.5   156    19.0   999.0   0.00  
 232   16:40    329   80.0    20   12.4   149    18.9   999.0   0.00  
 232   16:50    299   79.7    20   12.3   158    18.0   999.0   0.00  
 232   17:00    263   79.5    21   11.8   174    17.8   999.0   0.00  
 232   17:10    216   79.1    21   11.2   170    17.2   999.0   0.00  
 232   17:20     60   77.2    24    9.1   174    12.9   999.0   0.00  
 232   17:30    138   75.9    25    7.3   176    12.2   999.0   0.00  
 232   17:40    145   77.6    24    8.3   159    13.7   999.0   0.00  
 232   17:50    104   77.2    24    9.1   154    13.5   999.0   0.00  
 232   18:00     63   76.7    24    8.2   155    11.9   999.0   0.00  
 232   18:10     28   75.7    25    7.4   157    10.3   999.0   0.00  
 232   18:20      9   73.5    27    6.1   157     9.3   999.0   0.00  
 232   18:30      7   72.0    28    5.4   157     9.5   999.0   0.00  
 232   18:40      2   71.2    28    5.4   148     9.2   999.0   0.00  
 232   18:50      0   70.8    28    5.0   142     7.4   999.0   0.00  
 232   19:00      0   70.1    28    5.9   155    11.2   999.0   0.00  
 232   19:10      0   70.2    28    6.5   158    11.2   999.0   0.00  
 232   19:20      0   69.5    28    6.0   161     8.7   999.0   0.00  
 232   19:30      0   69.2    28    6.1   157     9.1   999.0   0.00  
 232   19:40      0   69.3    27    8.4   152    11.5   999.0   0.00  
 232   19:50      0   69.8    27    9.0   160    13.2   999.0   0.00  
 232   20:00      0   69.7    27    8.9   160    14.5   999.0   0.00  
 232   20:10      0   69.5    26    9.1   160    14.4   999.0   0.00  
 232   20:20      0   69.5    26    9.5   163    15.4   999.0   0.00  
 232   20:30      0   69.3    26    8.8   165    13.3   999.0   0.00  
 232   20:40      0   69.1    26    8.5   165    12.9   999.0   0.00  
 232   20:50      0   69.1    25    9.8   166    15.1   999.0   0.00  
 232   21:00      0   68.9    26    8.7   164    14.9   999.0   0.00  

Return to Duckwater graphs page.


Western Regional Climate Center,wrcc@dri.edu